createdAt,value
2018-04-15T00:04:54.322Z,5.01
2018-04-15T00:10:45.080Z,7.93
2018-04-15T00:16:35.777Z,4.94
2018-04-15T00:22:26.572Z,7.26
2018-04-15T00:28:17.268Z,5.6
2018-04-15T00:34:07.990Z,6
2018-04-15T00:39:58.792Z,4.38
2018-04-15T00:45:49.535Z,3.4
2018-04-15T00:51:40.263Z,9
2018-04-15T00:57:30.973Z,3.33
2018-04-15T01:03:21.700Z,6.62
2018-04-15T01:09:12.457Z,4.76
2018-04-15T01:15:03.191Z,2.27
2018-04-15T01:20:53.970Z,4.42
2018-04-15T01:26:44.721Z,5.99
2018-04-15T01:32:35.557Z,3.94
2018-04-15T01:38:26.208Z,4.07
2018-04-15T01:44:16.937Z,2.17
2018-04-15T01:50:07.698Z,2.19
2018-04-15T01:55:58.434Z,4.25
2018-04-15T02:01:49.185Z,5.85
2018-04-15T02:07:39.932Z,4.81
2018-04-15T02:13:30.720Z,8.69
2018-04-15T02:19:21.456Z,4.26
2018-04-15T02:25:12.242Z,4.53
2018-04-15T02:31:02.947Z,6.73
2018-04-15T02:36:53.676Z,6.14
2018-04-15T02:42:44.450Z,3.46
2018-04-15T02:48:35.171Z,7.83
2018-04-15T02:54:25.923Z,5.19
2018-04-15T03:00:16.675Z,5.61
2018-04-15T03:06:07.407Z,5.04
2018-04-15T03:11:58.129Z,5.12
2018-04-15T03:17:48.909Z,4.35
2018-04-15T03:23:39.696Z,5.57
2018-04-15T03:29:30.438Z,10.21
2018-04-15T03:35:21.141Z,6.3
2018-04-15T03:41:11.936Z,5.17
2018-04-15T03:47:02.651Z,5.2
2018-04-15T03:52:53.393Z,6.45
2018-04-15T03:58:44.259Z,6.13
2018-04-15T04:04:34.923Z,5.43
2018-04-15T04:10:25.646Z,8.7
2018-04-15T04:16:16.364Z,9.19
2018-04-15T04:22:07.108Z,6.05
2018-04-15T04:27:57.882Z,7.6
2018-04-15T04:33:48.696Z,5.97
2018-04-15T04:39:39.362Z,4.88
2018-04-15T04:45:30.136Z,9.19
2018-04-15T04:51:20.883Z,6.89
2018-04-15T04:57:11.641Z,6.05
2018-04-15T05:03:02.348Z,6.48
2018-04-15T05:08:53.140Z,7.44
2018-04-15T05:14:43.876Z,10.86
2018-04-15T05:20:34.648Z,7.88
2018-04-15T05:26:25.407Z,7.44
2018-04-15T05:32:16.217Z,8.52
2018-04-15T05:38:06.904Z,8.24
2018-04-15T05:43:57.693Z,10.5
2018-04-15T05:49:48.420Z,11.11
2018-04-15T05:55:39.221Z,9.95
2018-04-15T06:01:29.928Z,8.24
2018-04-15T06:07:20.716Z,10.41
2018-04-15T06:13:11.447Z,7.44
2018-04-15T06:19:02.272Z,9.48
2018-04-15T06:24:52.987Z,10.19
2018-04-15T06:30:43.798Z,9.24
2018-04-15T06:36:34.522Z,8
2018-04-15T06:42:25.256Z,6.27
2018-04-15T06:48:16.065Z,11.67
2018-04-15T06:54:06.819Z,9.42
2018-04-15T06:59:57.626Z,8.24
2018-04-15T07:05:48.371Z,9.47
2018-04-15T07:11:39.107Z,9.92
2018-04-15T07:17:29.894Z,11.99
2018-04-15T07:23:20.664Z,8.84
2018-04-15T07:29:11.392Z,11.74
2018-04-15T07:35:02.132Z,6.4
2018-04-15T07:40:52.940Z,5.4
2018-04-15T07:46:43.704Z,6.72
2018-04-15T07:52:34.414Z,6.94
2018-04-15T07:58:25.189Z,9.94
2018-04-15T08:04:15.962Z,12.3
2018-04-15T08:10:06.762Z,9.08
2018-04-15T08:15:57.453Z,12.1
2018-04-15T08:21:48.215Z,12.19
2018-04-15T08:27:38.976Z,17.41
2018-04-15T08:33:29.689Z,8.59
2018-04-15T08:39:20.429Z,10.97
2018-04-15T08:45:11.221Z,12.4
2018-04-15T08:51:01.961Z,10.77
2018-04-15T08:56:52.705Z,12.91
2018-04-15T09:02:43.452Z,14.23
2018-04-15T09:08:34.282Z,11.18
2018-04-15T09:14:24.990Z,13.85
2018-04-15T09:20:15.746Z,11.99
2018-04-15T09:26:06.555Z,15.34
2018-04-15T09:31:57.259Z,15.29
2018-04-15T09:37:48.001Z,28.39
2018-04-15T09:43:38.806Z,25.4
2018-04-15T09:49:29.541Z,30.75
2018-04-15T09:55:20.339Z,33.9
2018-04-15T10:01:39.901Z,34.68
2018-04-15T10:13:20.652Z,37.45
2018-04-15T10:19:11.445Z,36.64
2018-04-15T10:25:02.223Z,30.57
2018-04-15T10:30:52.957Z,27.36
2018-04-15T10:36:43.717Z,35.3
2018-04-15T10:42:34.447Z,19.9
2018-04-15T10:48:25.272Z,23.51
2018-04-15T10:54:16.011Z,18.51
2018-04-15T11:00:06.771Z,23.61
2018-04-15T11:05:57.538Z,18.39
2018-04-15T11:11:48.332Z,16.74
2018-04-15T11:17:39.099Z,30.06
2018-04-15T11:23:29.867Z,19.35
2018-04-15T11:29:20.633Z,17.81
2018-04-15T11:35:11.441Z,23.19
2018-04-15T11:41:02.189Z,34.08
2018-04-15T11:46:53.035Z,31.66
2018-04-15T11:52:43.748Z,33.05
2018-04-15T11:58:34.518Z,31.77
2018-04-15T12:04:25.286Z,33
2018-04-15T12:10:16.153Z,36.64
2018-04-15T12:16:06.891Z,28.99
2018-04-15T12:21:57.710Z,32.92
2018-04-15T12:27:48.478Z,29.67
2018-04-15T12:33:39.377Z,19.51
2018-04-15T12:39:30.171Z,22.85
2018-04-15T12:45:20.964Z,23.97
2018-04-15T12:51:11.707Z,20.65
2018-04-15T12:57:02.533Z,21.7
2018-04-15T13:02:53.361Z,18.78
2018-04-15T13:08:44.119Z,22.01
2018-04-15T13:14:34.875Z,24.23
2018-04-15T13:20:25.664Z,26.64
2018-04-15T13:26:16.504Z,29.84
2018-04-15T13:32:07.231Z,20.7
2018-04-15T13:37:58.023Z,24.75
2018-04-15T13:43:48.798Z,25.36
2018-04-15T13:49:39.509Z,14.66
2018-04-15T13:55:30.365Z,19.13
2018-04-15T14:01:21.092Z,19.59
2018-04-15T14:07:11.836Z,25.98
2018-04-15T14:13:02.704Z,27.41
2018-04-15T14:18:53.341Z,26.64
2018-04-15T14:24:44.157Z,27.7
2018-04-15T14:30:34.836Z,38.22
2018-04-15T14:36:25.592Z,34.73
2018-04-15T14:42:16.333Z,25.32
2018-04-15T14:48:07.077Z,23.14
2018-04-15T14:53:57.866Z,33.39
2018-04-15T14:59:48.677Z,29.56
2018-04-15T15:05:39.377Z,26.36
2018-04-15T15:11:30.118Z,33.83
2018-04-15T15:17:20.840Z,41.54
2018-04-15T15:23:11.557Z,40.04
2018-04-15T15:29:02.355Z,49.45
2018-04-15T15:34:53.062Z,47.53
2018-04-15T15:40:43.844Z,48.17
2018-04-15T15:46:34.583Z,42.96
2018-04-15T15:52:25.372Z,40.7
2018-04-15T15:58:16.108Z,36.52
2018-04-15T16:04:06.929Z,37.84
2018-04-15T16:09:57.673Z,20.27
2018-04-15T16:15:48.460Z,25.5
2018-04-15T16:21:39.267Z,24.01
2018-04-15T16:27:30.016Z,25.08
2018-04-15T16:33:20.765Z,14.43
2018-04-15T16:39:11.601Z,21.58
2018-04-15T16:45:02.315Z,21.82
2018-04-15T16:50:53.061Z,16.44
2018-04-15T16:56:43.811Z,26.16
2018-04-15T17:02:34.613Z,20.58
2018-04-15T17:08:25.444Z,21.2
2018-04-15T17:14:16.115Z,24.59
2018-04-15T17:20:06.846Z,30.1
2018-04-15T17:25:57.696Z,26.01
2018-04-15T17:31:48.416Z,22.73
2018-04-15T17:37:39.156Z,30.4
2018-04-15T17:43:29.891Z,32.28
2018-04-15T17:49:20.717Z,23.6
2018-04-15T17:55:11.468Z,24.93
2018-04-15T18:01:02.243Z,27.34
2018-04-15T18:06:52.994Z,30.37
2018-04-15T18:12:43.663Z,21.49
2018-04-15T18:18:34.475Z,28.5
2018-04-15T18:24:25.219Z,21.73
2018-04-15T18:30:15.939Z,30.42
2018-04-15T18:36:06.703Z,21.61
2018-04-15T18:41:57.483Z,22.06
2018-04-15T18:47:48.211Z,18.36
2018-04-15T18:53:38.949Z,23.51
2018-04-15T18:59:29.680Z,15.7
2018-04-15T19:05:20.545Z,17.54
2018-04-15T19:11:11.189Z,22.05
2018-04-15T19:17:01.988Z,13.59
2018-04-15T19:22:52.670Z,15.13
2018-04-15T19:28:43.421Z,19.3
2018-04-15T19:34:34.199Z,23.3
2018-04-15T19:40:24.898Z,15.79
2018-04-15T19:46:15.634Z,20.46
2018-04-15T19:52:06.405Z,13.18
2018-04-15T19:57:57.136Z,15.43
2018-04-15T20:03:47.881Z,16.04
2018-04-15T20:09:38.589Z,17.75
2018-04-15T20:15:29.383Z,17.64
2018-04-15T20:21:20.026Z,14.24
2018-04-15T20:27:10.755Z,24.07
2018-04-15T20:33:01.493Z,17.85
2018-04-15T20:38:52.231Z,17.46
2018-04-15T20:44:42.938Z,12.64
2018-04-15T20:50:33.684Z,15.61
2018-04-15T20:56:24.457Z,21.18
2018-04-15T21:02:15.274Z,13.54
2018-04-15T21:08:05.890Z,20.28
2018-04-15T21:13:56.621Z,17.25
2018-04-15T21:19:47.368Z,12.19
2018-04-15T21:25:38.100Z,19.13
2018-04-15T21:31:28.793Z,12.73
2018-04-15T21:37:19.566Z,17.91
2018-04-15T21:43:10.240Z,16.4
2018-04-15T21:49:01.085Z,16.51
2018-04-15T21:54:51.700Z,16.94
2018-04-15T22:00:42.435Z,23.72
2018-04-15T22:06:33.218Z,18.07
2018-04-15T22:12:23.823Z,17
2018-04-15T22:18:14.592Z,20.29
2018-04-15T22:24:05.252Z,17.38
2018-04-15T22:29:56.013Z,17.66
2018-04-15T22:35:46.643Z,23.11
2018-04-15T22:41:37.348Z,17.55
2018-04-15T22:47:28.079Z,20.38
2018-04-15T22:53:18.765Z,16.07
2018-04-15T22:59:09.423Z,17.29
2018-04-15T23:05:00.122Z,18.96
2018-04-15T23:10:50.862Z,17.67
2018-04-15T23:16:41.539Z,14.56
2018-04-15T23:22:32.254Z,14.07
2018-04-15T23:28:22.917Z,19.49
2018-04-15T23:34:13.649Z,13.09
2018-04-15T23:40:04.293Z,13.58
2018-04-15T23:45:54.958Z,14.94
2018-04-15T23:51:45.686Z,18.82
2018-04-15T23:57:36.334Z,12.2
